Time;durP1;ratioP1;P1;durP2;ratioP2;P2;SDS_P1;SDS_P2;PMS_P1;PMS_P2;Temp;Humidity;BMP_temperature;BMP_pressure;BME280_temperature;BME280_humidity;BME280_pressure;Samples;Min_cycle;Max_cycle;Signal;HPM_P1;HPM_P2
2022/04/15 00:02:17;;;;;;;3.97;2.77;;;10.10;99.90;;;;;;6208331;23;20387;-56
2022/04/15 00:04:42;;;;;;;6.00;3.33;;;10.20;99.90;;;;;;6207925;23;20902;-57
2022/04/15 00:07:10;;;;;;;5.83;3.20;;;10.10;99.90;;;;;;6206851;23;20483;-57
2022/04/15 00:09:36;;;;;;;6.30;3.03;;;10.00;99.90;;;;;;6209672;23;20637;-53
2022/04/15 00:12:07;;;;;;;4.73;2.83;;;10.10;99.90;;;;;;6208591;23;20348;-58
2022/04/15 00:14:34;;;;;;;4.05;2.75;;;10.10;99.90;;;;;;6209229;23;20351;-58
2022/04/15 00:17:00;;;;;;;5.95;3.25;;;10.10;99.90;;;;;;6209982;23;20351;-56
2022/04/15 00:19:26;;;;;;;4.57;2.80;;;10.10;99.90;;;;;;6211088;23;20390;-54
2022/04/15 00:21:52;;;;;;;5.07;3.17;;;10.10;99.90;;;;;;6211436;23;20422;-53
2022/04/15 00:24:18;;;;;;;6.13;3.40;;;10.10;99.90;;;;;;6210470;23;20367;-55
2022/04/15 00:26:43;;;;;;;5.65;3.33;;;10.10;99.90;;;;;;6210583;23;20598;-54
2022/04/15 00:29:09;;;;;;;5.65;3.63;;;10.10;99.90;;;;;;6212567;23;20347;-56
2022/04/15 00:31:34;;;;;;;6.43;4.03;;;10.10;99.90;;;;;;6214584;23;20653;-57
2022/04/15 00:34:02;;;;;;;6.33;3.67;;;10.00;99.90;;;;;;6214106;23;20418;-57
2022/04/15 00:36:27;;;;;;;5.68;4.15;;;10.00;99.90;;;;;;6213488;23;20352;-56
2022/04/15 00:38:53;;;;;;;9.33;4.80;;;10.10;99.90;;;;;;6213113;23;20638;-57
2022/04/15 00:41:18;;;;;;;8.73;4.77;;;10.00;99.90;;;;;;6212358;23;20449;-58
2022/04/15 00:43:55;;;;;;;7.30;5.18;;;9.90;99.90;;;;;;6210702;23;20374;-57
2022/04/15 00:46:20;;;;;;;7.90;5.30;;;9.90;99.90;;;;;;6211104;23;20548;-53
2022/04/15 00:48:46;;;;;;;9.00;5.55;;;10.00;99.90;;;;;;6214197;23;20385;-55
2022/04/15 00:51:11;;;;;;;10.40;6.30;;;10.00;99.90;;;;;;6212580;23;20718;-61
2022/04/15 00:53:40;;;;;;;8.48;5.75;;;9.90;99.90;;;;;;6209663;23;20398;-57
2022/04/15 00:56:08;;;;;;;8.50;5.88;;;9.90;99.90;;;;;;6210721;23;20435;-55
2022/04/15 00:58:35;;;;;;;7.72;5.60;;;10.00;99.90;;;;;;6210449;23;20646;-56
2022/04/15 01:01:01;;;;;;;8.17;5.70;;;9.90;99.90;;;;;;6210224;23;20487;-55
2022/04/15 01:03:28;;;;;;;7.27;5.47;;;9.90;99.90;;;;;;6209429;23;20440;-55
2022/04/15 01:05:57;;;;;;;9.48;5.47;;;9.90;99.90;;;;;;6209392;23;20355;-58
2022/04/15 01:08:28;;;;;;;8.27;5.20;;;9.80;99.90;;;;;;6210800;23;20585;-57
2022/04/15 01:11:00;;;;;;;8.45;4.82;;;9.80;99.90;;;;;;6209664;23;20789;-56
2022/04/15 01:13:26;;;;;;;9.05;4.63;;;9.80;99.90;;;;;;6208796;23;20645;-54
2022/04/15 01:15:56;;;;;;;7.32;4.45;;;9.80;99.90;;;;;;6207854;23;20348;-53
2022/04/15 01:18:22;;;;;;;7.70;4.03;;;9.80;99.90;;;;;;6208521;23;20411;-55
2022/04/15 01:20:50;;;;;;;4.70;3.90;;;9.80;99.90;;;;;;6206791;23;20363;-53
2022/04/15 01:23:16;;;;;;;8.85;4.18;;;9.80;99.90;;;;;;6207382;23;20374;-55
2022/04/15 01:25:41;;;;;;;6.67;3.80;;;9.80;99.90;;;;;;6209732;23;20339;-58
2022/04/15 01:28:07;;;;;;;10.67;4.00;;;9.80;99.90;;;;;;6207838;23;20409;-55
2022/04/15 01:30:33;;;;;;;7.05;4.00;;;9.80;99.90;;;;;;6208133;23;20409;-57
2022/04/15 01:32:58;;;;;;;7.78;4.57;;;9.80;99.90;;;;;;6210541;23;20356;-55
2022/04/15 01:35:24;;;;;;;4.32;3.53;;;9.80;99.90;;;;;;6211428;23;20424;-55
2022/04/15 01:37:50;;;;;;;5.87;3.57;;;9.70;99.90;;;;;;6212355;23;20366;-57
2022/04/15 01:40:18;;;;;;;5.57;3.90;;;9.70;99.90;;;;;;6211310;23;20348;-58
2022/04/15 01:42:45;;;;;;;6.57;4.63;;;9.70;99.90;;;;;;6213294;23;20550;-56
2022/04/15 01:45:11;;;;;;;9.48;5.00;;;9.70;99.90;;;;;;6212596;23;20515;-54
2022/04/15 01:47:37;;;;;;;9.10;5.00;;;9.70;99.90;;;;;;6211999;23;20797;-54
2022/04/15 01:50:05;;;;;;;11.45;5.22;;;9.70;99.90;;;;;;6213746;23;20521;-58
2022/04/15 01:52:31;;;;;;;10.13;5.13;;;9.70;99.90;;;;;;6211445;23;20348;-54
2022/04/15 01:54:56;;;;;;;7.83;4.40;;;9.70;99.90;;;;;;6210392;23;20370;-58
2022/04/15 01:57:22;;;;;;;9.98;5.20;;;9.80;99.90;;;;;;6211207;23;20685;-54
2022/04/15 01:59:47;;;;;;;12.03;5.53;;;9.70;99.90;;;;;;6209529;23;20437;-56
2022/04/15 02:02:13;;;;;;;10.47;5.87;;;9.60;99.90;;;;;;6208245;23;20351;-54
2022/04/15 02:04:39;;;;;;;9.47;5.30;;;9.60;99.90;;;;;;6207950;23;20387;-58
2022/04/15 02:07:04;;;;;;;9.93;6.03;;;9.60;99.90;;;;;;6206522;23;20603;-57
2022/04/15 02:09:30;;;;;;;8.07;5.47;;;9.50;99.90;;;;;;6209879;23;20737;-56
2022/04/15 02:11:56;;;;;;;11.05;5.90;;;9.50;99.90;;;;;;6209516;23;20343;-55
2022/04/15 02:14:22;;;;;;;10.13;6.32;;;9.60;99.90;;;;;;6211839;23;20622;-58
2022/04/15 02:16:48;;;;;;;9.38;6.18;;;9.60;99.90;;;;;;6213670;23;20701;-59
2022/04/15 02:19:14;;;;;;;8.50;6.43;;;9.60;99.90;;;;;;6211021;23;20351;-58
2022/04/15 02:21:40;;;;;;;11.07;6.63;;;9.50;99.90;;;;;;6212300;23;20410;-58
2022/04/15 02:24:06;;;;;;;9.73;6.80;;;9.50;99.90;;;;;;6210252;23;20547;-59
2022/04/15 02:26:31;;;;;;;8.50;6.35;;;9.50;99.90;;;;;;6211770;23;20795;-58
2022/04/15 02:28:57;;;;;;;9.90;6.53;;;9.50;99.90;;;;;;6211367;23;20443;-58
2022/04/15 02:31:23;;;;;;;12.13;8.30;;;9.60;99.90;;;;;;6209743;23;20457;-57
2022/04/15 02:33:48;;;;;;;11.88;8.05;;;9.40;99.90;;;;;;6212206;23;20358;-54
2022/04/15 02:36:14;;;;;;;11.13;8.38;;;9.40;99.90;;;;;;6213733;23;20433;-57
2022/04/15 02:38:39;;;;;;;12.60;8.57;;;9.40;99.90;;;;;;6211655;23;20745;-58
2022/04/15 02:41:06;;;;;;;14.57;8.67;;;9.40;99.90;;;;;;6210997;23;20410;-58
2022/04/15 02:43:31;;;;;;;13.00;8.73;;;9.40;99.90;;;;;;6212377;23;20769;-57
2022/04/15 02:46:01;;;;;;;14.83;9.23;;;9.40;99.90;;;;;;6212735;23;20340;-56
2022/04/15 02:48:28;;;;;;;13.10;9.63;;;9.40;99.90;;;;;;6213237;23;20379;-54
2022/04/15 02:50:54;;;;;;;15.02;9.15;;;9.40;99.90;;;;;;6211312;23;20468;-53
2022/04/15 02:53:21;;;;;;;16.08;9.15;;;9.40;99.90;;;;;;6210761;23;20352;-56
2022/04/15 02:55:53;;;;;;;13.77;8.32;;;9.40;99.90;;;;;;6210775;23;20622;-52
2022/04/15 02:58:20;;;;;;;13.18;8.27;;;9.50;99.90;;;;;;6213360;23;20458;-54
2022/04/15 03:00:46;;;;;;;11.18;7.90;;;9.40;99.90;;;;;;6211178;23;20369;-51
2022/04/15 03:03:11;;;;;;;10.98;7.03;;;9.50;99.90;;;;;;6212106;23;20414;-51
2022/04/15 03:05:38;;;;;;;12.18;6.95;;;9.50;99.90;;;;;;6212505;23;20910;-58
2022/04/15 03:08:04;;;;;;;10.05;7.15;;;9.40;99.90;;;;;;6212457;23;20352;-54
2022/04/15 03:10:29;;;;;;;8.88;6.35;;;9.50;99.90;;;;;;6210852;23;20363;-58
2022/04/15 03:12:55;;;;;;;9.33;6.67;;;9.40;99.90;;;;;;6212077;23;20499;-58
2022/04/15 03:15:20;;;;;;;9.10;6.30;;;9.40;99.90;;;;;;6210095;23;20442;-58
2022/04/15 03:17:46;;;;;;;7.57;6.32;;;9.40;99.90;;;;;;6213025;23;20775;-58
2022/04/15 03:20:13;;;;;;;8.10;6.50;;;9.40;99.90;;;;;;6212301;23;20831;-54
2022/04/15 03:22:43;;;;;;;8.13;6.13;;;9.40;99.90;;;;;;6211162;23;20360;-53
2022/04/15 03:25:13;;;;;;;7.45;5.95;;;9.30;99.90;;;;;;6211457;23;20924;-56
2022/04/15 03:27:39;;;;;;;8.00;6.10;;;9.40;99.90;;;;;;6211052;23;20796;-57
2022/04/15 03:30:05;;;;;;;8.93;6.28;;;9.40;99.90;;;;;;6211240;23;20757;-55
2022/04/15 03:32:31;;;;;;;8.18;6.80;;;9.40;99.90;;;;;;6211920;23;20373;-55
2022/04/15 03:34:58;;;;;;;9.48;7.10;;;9.30;99.90;;;;;;6210847;23;20371;-57
2022/04/15 03:37:24;;;;;;;7.88;6.80;;;9.30;99.90;;;;;;6211038;23;20563;-56
2022/04/15 03:39:51;;;;;;;8.35;7.40;;;9.30;99.90;;;;;;6210238;23;20749;-56
2022/04/15 03:42:17;;;;;;;10.63;8.27;;;9.30;99.90;;;;;;6210822;23;20362;-56
2022/04/15 03:44:43;;;;;;;10.50;7.88;;;9.20;99.90;;;;;;6210142;23;20371;-56
2022/04/15 03:47:08;;;;;;;9.80;8.00;;;9.20;99.90;;;;;;6208339;23;20343;-56
2022/04/15 03:49:34;;;;;;;8.97;7.97;;;9.20;99.90;;;;;;6212057;23;20649;-57
2022/04/15 03:52:00;;;;;;;10.75;8.15;;;9.10;99.90;;;;;;6209583;23;20391;-55
2022/04/15 03:54:26;;;;;;;12.18;8.60;;;9.20;99.90;;;;;;6211772;23;20363;-58
2022/04/15 03:56:51;;;;;;;11.65;8.52;;;9.20;99.90;;;;;;6211376;23;20361;-58
2022/04/15 03:59:17;;;;;;;10.10;8.20;;;9.20;99.90;;;;;;6210576;23;20405;-57
2022/04/15 04:01:43;;;;;;;10.90;9.23;;;9.20;99.90;;;;;;6210243;23;20344;-57
2022/04/15 04:04:09;;;;;;;11.97;8.73;;;9.20;99.90;;;;;;6209709;23;20384;-52
2022/04/15 04:06:34;;;;;;;13.60;9.80;;;9.20;99.90;;;;;;6209606;23;20435;-56
2022/04/15 04:09:00;;;;;;;12.10;9.30;;;9.20;99.90;;;;;;6210823;23;20752;-58
2022/04/15 04:11:26;;;;;;;14.57;9.30;;;9.20;99.90;;;;;;6211453;23;20344;-58
2022/04/15 04:13:51;;;;;;;12.20;9.23;;;9.20;99.90;;;;;;6211185;23;20348;-56
2022/04/15 04:16:18;;;;;;;12.13;9.83;;;9.30;99.90;;;;;;6212208;23;20569;-58
2022/04/15 04:18:44;;;;;;;14.32;10.52;;;9.20;99.90;;;;;;6213513;23;20423;-55
2022/04/15 04:21:09;;;;;;;15.40;11.05;;;9.20;99.90;;;;;;6211335;23;20630;-55
2022/04/15 04:23:35;;;;;;;14.73;10.50;;;9.20;99.90;;;;;;6212315;23;20725;-55
2022/04/15 04:26:02;;;;;;;15.18;10.85;;;9.30;99.90;;;;;;6210607;23;20348;-56
2022/04/15 04:28:28;;;;;;;15.25;10.52;;;9.20;99.90;;;;;;6209597;23;20446;-54
2022/04/15 04:30:53;;;;;;;11.75;10.15;;;9.30;99.90;;;;;;6209348;23;20351;-58
2022/04/15 04:33:20;;;;;;;12.53;10.80;;;9.40;99.90;;;;;;6211146;23;20374;-54
2022/04/15 04:35:46;;;;;;;14.45;11.40;;;9.30;99.90;;;;;;6211507;23;20355;-56
2022/04/15 04:38:11;;;;;;;20.17;14.00;;;9.30;99.90;;;;;;6209350;23;20733;-54
2022/04/15 04:40:38;;;;;;;16.83;12.80;;;9.30;99.90;;;;;;6210475;23;20433;-58
2022/04/15 04:43:05;;;;;;;17.50;12.40;;;9.30;99.90;;;;;;6211374;23;20426;-55
2022/04/15 04:45:32;;;;;;;17.57;13.07;;;9.40;99.90;;;;;;6210048;23;20468;-56
2022/04/15 04:48:00;;;;;;;19.90;14.18;;;9.30;99.90;;;;;;6211368;23;20351;-56
2022/04/15 04:50:26;;;;;;;19.70;13.77;;;9.30;99.90;;;;;;6209691;23;20369;-59
2022/04/15 04:52:52;;;;;;;19.52;14.75;;;9.30;99.90;;;;;;6213459;23;20435;-57
2022/04/15 04:55:18;;;;;;;19.43;14.73;;;9.30;99.90;;;;;;6211304;23;20356;-57
2022/04/15 04:57:44;;;;;;;21.27;15.30;;;9.30;99.90;;;;;;6211393;23;20356;-55
2022/04/15 05:00:13;;;;;;;21.33;15.68;;;9.20;99.90;;;;;;6209560;23;20442;-54
2022/04/15 05:02:39;;;;;;;21.58;15.13;;;9.20;99.90;;;;;;6210196;23;20693;-53
2022/04/15 05:05:06;;;;;;;21.17;16.23;;;9.30;99.90;;;;;;6209082;23;20912;-57
2022/04/15 05:07:32;;;;;;;23.05;16.98;;;9.30;99.90;;;;;;6209956;23;20354;-55
2022/04/15 05:09:57;;;;;;;18.30;15.68;;;9.30;99.90;;;;;;6211873;23;20531;-55
2022/04/15 05:12:23;;;;;;;18.80;14.80;;;9.30;99.90;;;;;;6209469;23;20365;-57
2022/04/15 05:14:49;;;;;;;19.95;15.23;;;9.30;99.90;;;;;;6208632;23;20385;-56
2022/04/15 05:17:14;;;;;;;19.53;15.87;;;9.40;99.90;;;;;;6209762;23;20425;-53
2022/04/15 05:19:40;;;;;;;21.93;16.23;;;9.40;99.90;;;;;;6209586;23;20466;-51
2022/04/15 05:22:05;;;;;;;20.33;16.58;;;9.30;99.90;;;;;;6211026;23;20355;-58
2022/04/15 05:24:31;;;;;;;21.83;16.20;;;9.30;99.90;;;;;;6210156;23;20659;-57
2022/04/15 05:27:03;;;;;;;20.93;16.17;;;9.30;99.90;;;;;;6212300;23;20777;-56
2022/04/15 05:29:29;;;;;;;22.08;17.00;;;9.30;99.90;;;;;;6211571;23;20351;-56
2022/04/15 05:31:54;;;;;;;20.97;16.77;;;9.30;99.90;;;;;;6211169;23;20351;-58
2022/04/15 05:34:20;;;;;;;20.13;15.67;;;9.30;99.90;;;;;;6210077;23;20425;-55
2022/04/15 05:36:45;;;;;;;20.17;15.50;;;9.30;99.90;;;;;;6208107;23;20642;-57
2022/04/15 05:39:11;;;;;;;20.80;16.00;;;9.40;99.90;;;;;;6205935;23;20348;-58
2022/04/15 05:41:36;;;;;;;19.50;14.60;;;9.40;99.90;;;;;;6208331;23;20387;-53
2022/04/15 05:44:03;;;;;;;22.17;15.98;;;9.40;99.90;;;;;;6208996;23;20359;-55
2022/04/15 05:46:32;;;;;;;21.38;15.13;;;9.50;99.90;;;;;;6208876;23;20677;-56
2022/04/15 05:48:58;;;;;;;20.88;15.60;;;9.50;99.90;;;;;;6209116;23;20351;-56
2022/04/15 05:51:24;;;;;;;21.77;15.30;;;9.50;99.90;;;;;;6211430;23;20416;-53
2022/04/15 05:53:49;;;;;;;23.40;17.95;;;9.60;99.90;;;;;;6210114;23;20574;-54
2022/04/15 05:56:15;;;;;;;24.45;17.73;;;9.50;99.90;;;;;;6208968;23;20509;-54
2022/04/15 05:58:40;;;;;;;25.03;18.07;;;9.50;99.90;;;;;;6208530;23;20362;-53
2022/04/15 06:01:09;;;;;;;24.97;18.10;;;9.40;99.90;;;;;;6207872;23;20568;-54
2022/04/15 06:03:35;;;;;;;27.63;19.00;;;9.40;99.90;;;;;;6205373;23;20395;-55
2022/04/15 06:06:01;;;;;;;25.55;18.98;;;9.40;99.90;;;;;;6205608;23;20581;-55
2022/04/15 06:08:26;;;;;;;28.70;19.33;;;9.30;99.90;;;;;;6207400;23;20618;-56
2022/04/15 06:10:52;;;;;;;28.60;18.77;;;9.30;99.90;;;;;;6208069;23;20336;-55
2022/04/15 06:13:22;;;;;;;28.47;18.73;;;9.40;99.90;;;;;;6211015;23;20375;-57
2022/04/15 06:15:57;;;;;;;26.20;17.92;;;9.40;99.90;;;;;;6210245;23;20837;-58
2022/04/15 06:18:29;;;;;;;25.83;18.42;;;9.40;99.90;;;;;;6209320;23;20370;-58
2022/04/15 06:20:55;;;;;;;30.38;19.30;;;9.40;99.90;;;;;;6210468;23;20367;-58
2022/04/15 06:23:21;;;;;;;26.95;17.85;;;9.40;99.90;;;;;;6211850;23;20364;-55
2022/04/15 06:25:46;;;;;;;28.58;17.60;;;9.40;99.90;;;;;;6208808;23;20410;-53
2022/04/15 06:28:13;;;;;;;27.42;18.50;;;9.40;99.90;;;;;;6206741;23;20343;-58
2022/04/15 06:30:38;;;;;;;27.38;17.98;;;9.40;99.90;;;;;;6207373;23;20375;-57
2022/04/15 06:33:06;;;;;;;28.25;17.90;;;9.40;99.90;;;;;;6208709;23;20367;-54
2022/04/15 06:35:33;;;;;;;29.25;17.52;;;9.40;99.90;;;;;;6206210;23;20367;-55
2022/04/15 06:37:59;;;;;;;32.03;18.92;;;9.40;99.90;;;;;;6204491;23;20622;-56
2022/04/15 06:40:24;;;;;;;27.67;17.42;;;9.40;99.90;;;;;;6206043;23;20740;-53
2022/04/15 06:42:50;;;;;;;24.58;16.90;;;9.40;99.90;;;;;;6206417;23;20716;-55
2022/04/15 06:45:15;;;;;;;26.03;16.80;;;9.40;99.90;;;;;;6205579;23;20446;-58
2022/04/15 06:47:41;;;;;;;26.27;16.40;;;9.50;99.90;;;;;;6206887;23;20379;-58
2022/04/15 06:50:07;;;;;;;29.73;17.07;;;9.50;99.90;;;;;;6204403;23;20365;-55
2022/04/15 06:52:33;;;;;;;28.35;15.98;;;9.50;99.90;;;;;;6207181;23;20357;-56
2022/04/15 06:54:58;;;;;;;25.13;15.68;;;9.50;99.90;;;;;;6207666;23;20423;-59
2022/04/15 06:57:24;;;;;;;30.20;17.27;;;9.50;99.90;;;;;;6206322;23;20348;-58
2022/04/15 06:59:50;;;;;;;26.20;16.03;;;9.60;99.90;;;;;;6207261;23;20798;-54
2022/04/15 07:02:15;;;;;;;28.80;16.70;;;9.60;99.90;;;;;;6206651;23;20425;-56
2022/04/15 07:04:41;;;;;;;25.80;15.90;;;9.60;99.90;;;;;;6206402;23;20375;-57
2022/04/15 07:07:06;;;;;;;23.00;15.20;;;9.60;99.90;;;;;;6206567;23;20355;-58
2022/04/15 07:09:32;;;;;;;24.10;14.87;;;9.60;99.90;;;;;;6203531;23;20431;-55
2022/04/15 07:11:57;;;;;;;24.52;15.63;;;9.60;99.90;;;;;;6202380;23;20737;-57
2022/04/15 07:14:23;;;;;;;26.77;16.08;;;9.50;99.90;;;;;;6202176;23;20352;-58
2022/04/15 07:16:49;;;;;;;23.50;16.02;;;9.50;99.90;;;;;;6203762;23;20401;-58
2022/04/15 07:19:15;;;;;;;22.45;15.52;;;9.50;99.90;;;;;;6202610;23;20424;-54
2022/04/15 07:21:42;;;;;;;22.35;15.15;;;9.60;99.90;;;;;;6201427;23;20773;-56
2022/04/15 07:24:08;;;;;;;21.52;14.75;;;9.60;99.90;;;;;;6204586;23;20473;-57
2022/04/15 07:26:34;;;;;;;21.35;15.18;;;9.70;99.90;;;;;;6206351;23;20339;-59
2022/04/15 07:29:00;;;;;;;23.13;15.98;;;9.70;99.90;;;;;;6205243;23;20422;-58
2022/04/15 07:31:25;;;;;;;24.10;16.70;;;9.70;99.90;;;;;;6205505;23;20409;-56
2022/04/15 07:33:51;;;;;;;21.93;15.67;;;9.70;99.90;;;;;;6204547;23;20379;-57
2022/04/15 07:39:07;;;;;;;27.88;17.58;;;9.70;99.90;;;;;;6217099;23;20359;-58
2022/04/15 07:41:37;;;;;;;27.73;17.88;;;9.60;99.90;;;;;;6206565;23;20356;-59
2022/04/15 07:44:04;;;;;;;22.85;17.23;;;9.70;99.90;;;;;;6205563;23;20395;-55
2022/04/15 07:46:30;;;;;;;23.33;16.70;;;9.70;99.90;;;;;;6201112;23;20480;-59
2022/04/15 07:48:55;;;;;;;22.93;16.60;;;9.70;99.90;;;;;;6202856;23;20343;-57
2022/04/15 07:51:21;;;;;;;22.23;16.05;;;9.70;99.90;;;;;;6202264;23;20367;-57
2022/04/15 07:53:46;;;;;;;22.90;15.60;;;9.70;99.90;;;;;;6202597;23;20745;-57
2022/04/15 07:56:12;;;;;;;20.43;15.13;;;9.70;99.90;;;;;;6203951;23;20366;-58
2022/04/15 07:58:37;;;;;;;17.27;13.73;;;9.70;99.90;;;;;;6202843;23;20344;-58
2022/04/15 08:01:03;;;;;;;17.87;13.00;;;9.80;99.90;;;;;;6203204;23;20375;-58
2022/04/15 08:03:29;;;;;;;19.02;13.70;;;9.80;99.90;;;;;;6204349;23;20379;-54
2022/04/15 08:05:54;;;;;;;17.98;13.45;;;9.80;99.90;;;;;;6208973;23;20374;-56
2022/04/15 08:08:21;;;;;;;16.63;12.68;;;9.90;99.90;;;;;;6207096;23;20361;-58
2022/04/15 08:10:48;;;;;;;15.18;12.50;;;9.90;99.90;;;;;;6208132;23;20507;-58
2022/04/15 08:13:14;;;;;;;16.85;12.60;;;9.90;99.90;;;;;;6207092;23;20379;-58
2022/04/15 08:15:39;;;;;;;16.85;13.48;;;10.00;99.90;;;;;;6208042;23;20366;-59
2022/04/15 08:18:05;;;;;;;18.50;14.10;;;10.00;99.90;;;;;;6210408;23;20348;-59
2022/04/15 08:20:31;;;;;;;16.57;13.50;;;10.00;99.90;;;;;;6210181;23;20394;-58
2022/04/15 08:22:56;;;;;;;17.87;13.60;;;10.00;99.90;;;;;;6207229;23;20435;-58
2022/04/15 08:25:22;;;;;;;17.43;13.80;;;10.00;99.90;;;;;;6205563;23;20470;-58
2022/04/15 08:27:47;;;;;;;18.20;14.25;;;10.00;99.90;;;;;;6209229;23;20357;-58
2022/04/15 08:30:13;;;;;;;18.57;14.80;;;10.00;99.90;;;;;;6211502;23;20402;-58
2022/04/15 08:32:38;;;;;;;20.15;15.77;;;10.00;99.90;;;;;;6209957;23;20350;-58
2022/04/15 08:35:06;;;;;;;17.73;13.82;;;10.10;99.90;;;;;;6207425;23;20359;-57
2022/04/15 08:37:33;;;;;;;17.92;14.80;;;10.10;99.90;;;;;;6205194;23;20443;-55
2022/04/15 08:40:00;;;;;;;14.80;13.00;;;10.20;99.90;;;;;;6205958;23;20347;-57
2022/04/15 08:42:26;;;;;;;17.13;14.02;;;10.20;99.90;;;;;;6206979;23;20402;-58
2022/04/15 08:44:52;;;;;;;19.05;14.48;;;10.20;99.90;;;;;;6207857;23;20555;-56
2022/04/15 08:47:19;;;;;;;18.73;14.75;;;10.20;99.90;;;;;;6206390;23;20745;-58
2022/04/15 08:49:46;;;;;;;15.68;13.10;;;10.20;99.90;;;;;;6205824;23;20777;-58
2022/04/15 08:52:15;;;;;;;17.80;14.13;;;10.30;99.90;;;;;;6207674;23;20868;-58
2022/04/15 08:54:41;;;;;;;15.77;14.00;;;10.30;99.90;;;;;;6204042;23;20686;-55
2022/04/15 08:57:07;;;;;;;18.83;14.05;;;10.30;99.90;;;;;;6202217;23;20358;-56
2022/04/15 08:59:33;;;;;;;15.13;12.85;;;10.30;99.90;;;;;;6204411;23;20630;-57
2022/04/15 09:01:58;;;;;;;16.93;13.57;;;10.30;99.90;;;;;;6201922;23;20819;-57
2022/04/15 09:04:25;;;;;;;15.48;13.45;;;10.30;99.90;;;;;;6203191;23;20383;-58
2022/04/15 09:06:55;;;;;;;14.63;12.20;;;10.30;99.90;;;;;;6207239;23;20351;-58
2022/04/15 09:09:29;;;;;;;17.05;13.15;;;10.30;99.90;;;;;;6208337;23;20355;-59
2022/04/15 09:11:59;;;;;;;15.50;13.13;;;10.50;99.90;;;;;;6208032;23;20410;-57
2022/04/15 09:14:30;;;;;;;17.10;14.35;;;10.40;99.90;;;;;;6208154;23;20442;-56
2022/04/15 09:17:04;;;;;;;16.85;13.73;;;10.40;99.90;;;;;;6203248;23;20405;-59
2022/04/15 09:19:32;;;;;;;14.77;13.18;;;10.50;99.90;;;;;;6159160;23;20777;-58
2022/04/15 09:21:58;;;;;;;18.40;14.23;;;10.50;99.90;;;;;;6208308;23;20705;-58
2022/04/15 09:24:33;;;;;;;17.20;14.02;;;10.40;99.90;;;;;;6205278;23;20975;-58
2022/04/15 09:27:05;;;;;;;17.30;13.57;;;10.50;99.90;;;;;;6204274;23;20354;-58
2022/04/15 09:29:38;;;;;;;17.23;14.20;;;10.50;99.90;;;;;;6208340;23;20370;-58
2022/04/15 09:32:15;;;;;;;13.65;12.20;;;10.50;99.90;;;;;;6210515;23;20339;-58
2022/04/15 09:35:00;;;;;;;15.93;13.48;;;10.60;99.90;;;;;;6209411;23;20414;-57
2022/04/15 09:37:35;;;;;;;13.68;11.35;;;10.60;99.90;;;;;;6209976;23;20355;-58
2022/04/15 09:40:14;;;;;;;17.93;14.43;;;10.70;99.90;;;;;;6209799;23;20343;-58
2022/04/15 09:42:50;;;;;;;17.00;12.98;;;10.70;99.90;;;;;;6208627;23;20370;-64
2022/04/15 09:45:19;;;;;;;14.48;12.32;;;10.80;99.90;;;;;;6205467;23;20348;-56
2022/04/15 09:47:57;;;;;;;14.73;12.27;;;10.90;99.90;;;;;;6209609;23;20738;-58
2022/04/15 09:50:32;;;;;;;18.00;14.25;;;10.90;99.90;;;;;;6206453;23;20900;-53
2022/04/15 09:53:11;;;;;;;16.85;13.98;;;10.90;99.90;;;;;;6207282;23;20421;-56
2022/04/15 09:55:42;;;;;;;15.75;14.05;;;10.90;99.90;;;;;;6208081;23;20749;-59
2022/04/15 09:58:17;;;;;;;17.75;14.02;;;10.80;99.90;;;;;;6183241;23;20409;-57
2022/04/15 10:00:48;;;;;;;16.85;14.45;;;10.80;99.90;;;;;;6210762;23;20379;-55
2022/04/15 10:03:19;;;;;;;19.90;15.60;;;10.80;99.90;;;;;;6208760;23;20383;-55
2022/04/15 10:05:46;;;;;;;18.85;14.95;;;10.80;99.90;;;;;;6209336;23;20450;-56
2022/04/15 10:08:14;;;;;;;16.52;13.18;;;10.70;99.90;;;;;;6209213;23;20348;-57
2022/04/15 10:10:40;;;;;;;16.83;14.48;;;10.70;99.90;;;;;;6208343;23;20370;-57
2022/04/15 10:13:07;;;;;;;18.67;15.20;;;10.70;99.90;;;;;;6206235;23;20351;-57
2022/04/15 10:15:34;;;;;;;16.13;13.43;;;10.70;99.90;;;;;;6205780;23;20477;-57
2022/04/15 10:18:01;;;;;;;16.88;13.93;;;10.80;99.90;;;;;;6205204;23;20801;-57
2022/04/15 10:20:29;;;;;;;17.75;14.15;;;10.90;99.90;;;;;;6210327;23;20366;-57
2022/04/15 10:23:05;;;;;;;18.90;14.82;;;10.90;99.90;;;;;;6210279;23;20478;-55
2022/04/15 10:25:33;;;;;;;19.10;15.52;;;10.90;99.90;;;;;;6209569;23;20979;-57
2022/04/15 10:28:16;;;;;;;14.52;12.77;;;10.90;99.90;;;;;;6208233;23;20362;-56
2022/04/15 10:31:07;;;;;;;16.77;14.02;;;10.90;99.90;;;;;;6208886;23;20347;-53
2022/04/15 10:33:33;;;;;;;18.02;13.45;;;11.00;99.90;;;;;;6209204;23;20370;-56
2022/04/15 10:36:00;;;;;;;18.67;14.50;;;11.00;99.90;;;;;;6208514;23;20665;-54
2022/04/15 10:38:26;;;;;;;16.40;13.93;;;11.00;99.90;;;;;;6207110;23;20351;-56
2022/04/15 10:40:51;;;;;;;16.30;13.48;;;11.00;99.90;;;;;;6206514;23;20442;-56
2022/04/15 10:43:27;;;;;;;17.47;14.60;;;11.10;99.90;;;;;;6204584;23;20788;-57
2022/04/15 10:46:14;;;;;;;17.30;13.93;;;11.00;99.90;;;;;;6203311;23;20425;-55
2022/04/15 10:48:41;;;;;;;16.93;14.37;;;11.00;99.90;;;;;;6203520;23;20355;-54
2022/04/15 10:51:24;;;;;;;17.50;13.88;;;11.10;99.90;;;;;;6203111;23;20347;-58
2022/04/15 10:53:50;;;;;;;16.55;13.50;;;11.00;99.90;;;;;;6200615;23;20700;-54
2022/04/15 10:56:18;;;;;;;18.90;14.53;;;11.00;99.90;;;;;;6199438;23;20394;-57
2022/04/15 11:01:32;;;;;;;17.73;13.10;;;11.00;99.90;;;;;;6209630;23;20362;-56
2022/04/15 11:04:05;;;;;;;17.25;13.95;;;11.00;99.90;;;;;;6207493;23;20375;-54
2022/04/15 11:06:31;;;;;;;16.38;12.63;;;11.00;99.90;;;;;;6205815;23;20614;-56
2022/04/15 11:08:56;;;;;;;16.98;13.45;;;11.00;99.90;;;;;;6207055;23;20394;-57
2022/04/15 11:11:35;;;;;;;18.60;13.53;;;11.00;99.90;;;;;;6204902;23;20746;-57
2022/04/15 11:14:03;;;;;;;15.32;12.02;;;11.00;99.90;;;;;;6206276;23;20344;-54
2022/04/15 11:16:59;;;;;;;18.80;13.45;;;11.10;99.90;;;;;;6208753;23;20363;-55
2022/04/15 11:19:25;;;;;;;19.13;14.30;;;11.10;99.90;;;;;;6188747;23;20363;-58
2022/04/15 11:21:53;;;;;;;16.75;12.65;;;11.10;99.90;;;;;;6208296;23;21004;-59
2022/04/15 11:24:23;;;;;;;18.02;13.02;;;11.10;99.90;;;;;;6211413;23;21010;-58
2022/04/15 11:26:57;;;;;;;16.83;12.82;;;11.20;99.90;;;;;;6211306;23;20788;-59
2022/04/15 11:29:28;;;;;;;16.90;12.13;;;11.30;99.90;;;;;;6208993;23;20765;-55
2022/04/15 11:32:07;;;;;;;15.40;11.38;;;11.30;99.90;;;;;;6209997;23;20402;-55
2022/04/15 11:34:34;;;;;;;15.48;11.80;;;11.30;99.90;;;;;;6211496;23;20355;-56
2022/04/15 11:37:05;;;;;;;15.87;12.17;;;11.40;99.90;;;;;;6212850;23;20425;-57
2022/04/15 11:39:36;;;;;;;14.00;10.00;;;11.30;99.90;;;;;;6213098;23;20348;-56
2022/04/15 11:42:10;;;;;;;12.60;10.13;;;11.10;99.90;;;;;;6187958;23;20680;-54
2022/04/15 11:44:37;;;;;;;11.23;9.07;;;11.10;99.90;;;;;;6214419;23;20374;-56
2022/04/15 11:47:16;;;;;;;10.90;8.60;;;11.00;99.90;;;;;;6212584;23;20367;-55
2022/04/15 11:49:43;;;;;;;9.98;7.80;;;11.00;99.90;;;;;;6213060;23;20343;-55
2022/04/15 11:52:09;;;;;;;10.27;8.50;;;11.10;99.90;;;;;;6211183;23;20582;-59
2022/04/15 11:54:40;;;;;;;10.87;8.80;;;11.10;99.90;;;;;;6212657;23;20673;-57
2022/04/15 11:57:07;;;;;;;10.82;8.52;;;11.10;99.90;;;;;;6210956;23;20351;-56
2022/04/15 11:59:40;;;;;;;9.30;7.78;;;11.10;99.90;;;;;;6208785;23;20364;-55
2022/04/15 12:02:08;;;;;;;10.73;8.35;;;11.20;99.90;;;;;;6207585;23;20390;-53
2022/04/15 12:04:34;;;;;;;10.50;8.20;;;11.20;99.90;;;;;;6208303;23;20379;-58
2022/04/15 12:07:01;;;;;;;11.00;8.82;;;11.20;99.90;;;;;;6207350;23;20364;-55
2022/04/15 12:09:28;;;;;;;10.05;8.27;;;11.20;99.90;;;;;;6208886;23;20797;-57
2022/04/15 12:11:55;;;;;;;10.43;7.78;;;11.20;99.90;;;;;;6207048;23;20405;-56
2022/04/15 12:14:33;;;;;;;11.98;8.98;;;11.20;99.90;;;;;;6207113;23;20352;-58
2022/04/15 12:17:01;;;;;;;10.15;8.15;;;11.20;99.90;;;;;;6209129;23;20887;-53
2022/04/15 12:19:28;;;;;;;9.88;7.90;;;11.20;99.90;;;;;;6209537;23;20358;-58
2022/04/15 12:21:53;;;;;;;10.10;8.02;;;11.30;99.90;;;;;;6208605;23;20383;-53
2022/04/15 12:24:23;;;;;;;9.50;8.03;;;11.30;99.90;;;;;;6210542;23;20360;-56
2022/04/15 12:26:53;;;;;;;29.27;24.45;;;11.30;99.90;;;;;;6207299;23;20351;-56
2022/04/15 12:32:22;;;;;;;9.10;7.60;;;11.30;99.90;;;;;;6211472;23;20439;-57
2022/04/15 12:34:49;;;;;;;8.32;6.80;;;11.30;99.90;;;;;;6211426;23;20364;-55
2022/04/15 12:37:59;;;;;;;7.32;5.82;;;11.30;99.90;;;;;;6242825;22;20380;-57
2022/04/15 12:40:30;;;;;;;7.50;5.53;;;11.30;99.90;;;;;;6153733;23;20395;-57
2022/04/15 12:43:17;;;;;;;4.40;4.00;;;11.30;99.90;;;;;;6256849;22;20367;-57
2022/04/15 12:45:49;;;;;;;6.90;5.28;;;11.40;99.90;;;;;;6272114;22;20352;-56
2022/04/15 12:48:16;;;;;;;5.83;4.90;;;11.40;99.90;;;;;;6270734;22;20961;-57
2022/04/15 12:50:46;;;;;;;5.23;4.73;;;11.50;99.90;;;;;;6271237;22;20344;-54
2022/04/15 12:53:18;;;;;;;5.67;4.73;;;11.40;99.90;;;;;;6271417;22;20390;-56